sensor_id;sensor_type;location;lat;lon;timestamp;pressure;altitude;pressure_sealevel;temperature;humidity
76627;BME280;65519;53.230;10.390;2023-06-26T00:02:11;101125.28;;;21.65;65.80
76627;BME280;65519;53.230;10.390;2023-06-26T00:04:37;101124.13;;;21.66;66.02
76627;BME280;65519;53.230;10.390;2023-06-26T00:07:04;101114.88;;;21.62;66.13
76627;BME280;65519;53.230;10.390;2023-06-26T00:09:29;101114.88;;;21.62;65.61
76627;BME280;65519;53.230;10.390;2023-06-26T00:11:55;101114.81;;;21.71;65.31
76627;BME280;65519;53.230;10.390;2023-06-26T00:14:20;101115.31;;;21.73;65.45
76627;BME280;65519;53.230;10.390;2023-06-26T00:16:46;101109.97;;;21.59;65.87
76627;BME280;65519;53.230;10.390;2023-06-26T00:19:15;101113.59;;;21.51;66.03
76627;BME280;65519;53.230;10.390;2023-06-26T00:21:40;101102.88;;;21.41;66.36
76627;BME280;65519;53.230;10.390;2023-06-26T00:24:06;101103.34;;;21.43;66.56
76627;BME280;65519;53.230;10.390;2023-06-26T00:26:31;101096.84;;;21.39;66.54
76627;BME280;65519;53.230;10.390;2023-06-26T00:28:57;101097.81;;;21.34;66.68
76627;BME280;65519;53.230;10.390;2023-06-26T00:31:22;101106.19;;;21.26;66.85
76627;BME280;65519;53.230;10.390;2023-06-26T00:33:48;101098.72;;;21.09;67.43
76627;BME280;65519;53.230;10.390;2023-06-26T00:36:13;101099.53;;;21.18;67.27
76627;BME280;65519;53.230;10.390;2023-06-26T00:38:39;101093.28;;;21.21;67.29
76627;BME280;65519;53.230;10.390;2023-06-26T00:41:06;101096.88;;;21.13;67.92
76627;BME280;65519;53.230;10.390;2023-06-26T00:43:37;101097.69;;;21.13;67.74
76627;BME280;65519;53.230;10.390;2023-06-26T00:46:03;101099.03;;;21.07;67.68
76627;BME280;65519;53.230;10.390;2023-06-26T00:48:29;101098.22;;;21.07;67.76
76627;BME280;65519;53.230;10.390;2023-06-26T00:50:54;101094.59;;;21.15;67.42
76627;BME280;65519;53.230;10.390;2023-06-26T00:53:21;101093.00;;;21.05;67.32
76627;BME280;65519;53.230;10.390;2023-06-26T00:55:47;101088.41;;;21.09;67.10
76627;BME280;65519;53.230;10.390;2023-06-26T00:58:12;101079.78;;;21.20;66.87
76627;BME280;65519;53.230;10.390;2023-06-26T01:00:39;101081.72;;;21.10;67.02
76627;BME280;65519;53.230;10.390;2023-06-26T01:03:04;101079.16;;;20.97;67.69
76627;BME280;65519;53.230;10.390;2023-06-26T01:05:30;101072.59;;;21.10;67.33
76627;BME280;65519;53.230;10.390;2023-06-26T01:07:57;101074.22;;;21.11;66.91
76627;BME280;65519;53.230;10.390;2023-06-26T01:10:24;101063.31;;;21.06;67.36
76627;BME280;65519;53.230;10.390;2023-06-26T01:12:52;101074.09;;;21.07;67.03
76627;BME280;65519;53.230;10.390;2023-06-26T01:15:18;101066.72;;;21.11;66.99
76627;BME280;65519;53.230;10.390;2023-06-26T01:17:44;101065.09;;;21.10;67.06
76627;BME280;65519;53.230;10.390;2023-06-26T01:20:10;101068.72;;;20.94;67.55
76627;BME280;65519;53.230;10.390;2023-06-26T01:22:48;101066.94;;;20.98;67.74
76627;BME280;65519;53.230;10.390;2023-06-26T01:25:31;101068.53;;;20.99;67.35
76627;BME280;65519;53.230;10.390;2023-06-26T01:28:04;101063.84;;;20.91;67.51
76627;BME280;65519;53.230;10.390;2023-06-26T01:30:31;101059.59;;;20.93;67.95
76627;BME280;65519;53.230;10.390;2023-06-26T01:32:58;101052.91;;;20.94;67.56
76627;BME280;65519;53.230;10.390;2023-06-26T01:35:24;101051.59;;;20.92;67.35
76627;BME280;65519;53.230;10.390;2023-06-26T01:37:50;101051.13;;;20.81;68.17
76627;BME280;65519;53.230;10.390;2023-06-26T01:40:15;101041.69;;;20.82;67.89
76627;BME280;65519;53.230;10.390;2023-06-26T01:42:41;101047.88;;;20.79;68.09
76627;BME280;65519;53.230;10.390;2023-06-26T01:45:27;101041.38;;;20.75;68.31
76627;BME280;65519;53.230;10.390;2023-06-26T01:47:57;101046.59;;;20.76;67.86
76627;BME280;65519;53.230;10.390;2023-06-26T01:50:28;101034.81;;;20.88;67.90
76627;BME280;65519;53.230;10.390;2023-06-26T01:53:04;101041.03;;;20.85;67.77
76627;BME280;65519;53.230;10.390;2023-06-26T01:55:44;101036.31;;;20.77;68.15
76627;BME280;65519;53.230;10.390;2023-06-26T01:58:14;101044.84;;;20.55;68.87
76627;BME280;65519;53.230;10.390;2023-06-26T02:00:42;101034.69;;;20.67;68.43
76627;BME280;65519;53.230;10.390;2023-06-26T02:03:08;101033.72;;;20.72;68.28
76627;BME280;65519;53.230;10.390;2023-06-26T02:05:34;101033.22;;;20.70;67.75
76627;BME280;65519;53.230;10.390;2023-06-26T02:08:00;101032.25;;;20.74;68.02
76627;BME280;65519;53.230;10.390;2023-06-26T02:10:29;101022.16;;;20.70;68.28
76627;BME280;65519;53.230;10.390;2023-06-26T02:12:55;101024.47;;;20.51;69.17
76627;BME280;65519;53.230;10.390;2023-06-26T02:15:21;101019.25;;;20.58;68.13
76627;BME280;65519;53.230;10.390;2023-06-26T02:17:47;101012.53;;;20.67;67.88
76627;BME280;65519;53.230;10.390;2023-06-26T02:20:14;101007.19;;;20.62;68.05
76627;BME280;65519;53.230;10.390;2023-06-26T02:22:41;101009.97;;;20.54;68.48
76627;BME280;65519;53.230;10.390;2023-06-26T02:25:09;101010.44;;;20.56;68.48
76627;BME280;65519;53.230;10.390;2023-06-26T02:27:35;101009.78;;;20.59;68.42
76627;BME280;65519;53.230;10.390;2023-06-26T02:30:01;101005.56;;;20.53;68.30
76627;BME280;65519;53.230;10.390;2023-06-26T02:32:27;101007.06;;;20.42;68.41
76627;BME280;65519;53.230;10.390;2023-06-26T02:34:53;101005.59;;;20.44;68.73
76627;BME280;65519;53.230;10.390;2023-06-26T02:37:19;101009.66;;;20.21;69.68
76627;BME280;65519;53.230;10.390;2023-06-26T02:39:45;101007.53;;;20.09;69.95
76627;BME280;65519;53.230;10.390;2023-06-26T02:42:11;101008.66;;;20.17;69.92
76627;BME280;65519;53.230;10.390;2023-06-26T02:44:37;101002.00;;;20.09;69.95
76627;BME280;65519;53.230;10.390;2023-06-26T02:47:02;100997.25;;;20.18;69.85
76627;BME280;65519;53.230;10.390;2023-06-26T02:49:29;100994.31;;;20.23;69.64
76627;BME280;65519;53.230;10.390;2023-06-26T02:51:54;100993.19;;;20.07;70.34
76627;BME280;65519;53.230;10.390;2023-06-26T02:54:25;100995.13;;;20.07;70.21
76627;BME280;65519;53.230;10.390;2023-06-26T02:56:53;100991.06;;;20.04;70.31
76627;BME280;65519;53.230;10.390;2023-06-26T02:59:24;100988.47;;;19.99;70.43
76627;BME280;65519;53.230;10.390;2023-06-26T03:01:50;100981.81;;;20.00;70.18
76627;BME280;65519;53.230;10.390;2023-06-26T03:04:16;100983.09;;;19.77;71.30
76627;BME280;65519;53.230;10.390;2023-06-26T03:06:43;100980.31;;;19.94;70.62
76627;BME280;65519;53.230;10.390;2023-06-26T03:09:09;100978.38;;;20.03;69.99
76627;BME280;65519;53.230;10.390;2023-06-26T03:11:35;100979.69;;;19.97;70.29
76627;BME280;65519;53.230;10.390;2023-06-26T03:14:01;100981.13;;;19.86;70.97
76627;BME280;65519;53.230;10.390;2023-06-26T03:16:26;100984.03;;;19.81;71.04
76627;BME280;65519;53.230;10.390;2023-06-26T03:18:53;100986.81;;;19.81;70.67
76627;BME280;65519;53.230;10.390;2023-06-26T03:21:18;100981.31;;;19.89;70.67
76627;BME280;65519;53.230;10.390;2023-06-26T03:23:45;100980.50;;;19.89;70.37
76627;BME280;65519;53.230;10.390;2023-06-26T03:26:11;100976.25;;;19.83;70.97
76627;BME280;65519;53.230;10.390;2023-06-26T03:28:37;100973.47;;;19.91;70.79
76627;BME280;65519;53.230;10.390;2023-06-26T03:31:03;100973.47;;;19.91;70.75
76627;BME280;65519;53.230;10.390;2023-06-26T03:33:28;100964.22;;;19.79;71.22
76627;BME280;65519;53.230;10.390;2023-06-26T03:35:55;100967.78;;;19.88;71.08
76627;BME280;65519;53.230;10.390;2023-06-26T03:38:21;100966.00;;;19.92;70.63
76627;BME280;65519;53.230;10.390;2023-06-26T03:40:47;100959.00;;;19.86;71.02
76627;BME280;65519;53.230;10.390;2023-06-26T03:43:12;100963.53;;;19.82;71.09
76627;BME280;65519;53.230;10.390;2023-06-26T03:45:58;100957.69;;;19.75;71.76
76627;BME280;65519;53.230;10.390;2023-06-26T03:48:25;100959.63;;;19.83;71.30
76627;BME280;65519;53.230;10.390;2023-06-26T03:50:51;100962.91;;;19.85;71.27
76627;BME280;65519;53.230;10.390;2023-06-26T03:53:16;100953.97;;;19.88;71.32
76627;BME280;65519;53.230;10.390;2023-06-26T03:55:42;100954.78;;;19.88;71.00
76627;BME280;65519;53.230;10.390;2023-06-26T03:58:08;100955.06;;;19.52;72.42
76627;BME280;65519;53.230;10.390;2023-06-26T04:00:34;100959.09;;;19.46;72.68
76627;BME280;65519;53.230;10.390;2023-06-26T04:02:59;100959.63;;;19.74;71.90
76627;BME280;65519;53.230;10.390;2023-06-26T04:05:25;100951.03;;;19.76;71.74
76627;BME280;65519;53.230;10.390;2023-06-26T04:07:51;100948.56;;;19.65;71.83
76627;BME280;65519;53.230;10.390;2023-06-26T04:10:17;100942.72;;;19.76;71.61
76627;BME280;65519;53.230;10.390;2023-06-26T04:12:43;100949.22;;;19.80;71.51
76627;BME280;65519;53.230;10.390;2023-06-26T04:15:08;100939.31;;;19.87;71.43
76627;BME280;65519;53.230;10.390;2023-06-26T04:17:34;100940.28;;;19.91;71.08
76627;BME280;65519;53.230;10.390;2023-06-26T04:19:59;100942.22;;;19.82;71.35
76627;BME280;65519;53.230;10.390;2023-06-26T04:22:25;100935.88;;;19.90;71.16
76627;BME280;65519;53.230;10.390;2023-06-26T04:24:51;100936.84;;;19.94;70.97
76627;BME280;65519;53.230;10.390;2023-06-26T04:27:17;100931.03;;;19.79;71.54
76627;BME280;65519;53.230;10.390;2023-06-26T04:29:43;100931.34;;;19.86;71.41
76627;BME280;65519;53.230;10.390;2023-06-26T04:32:08;100939.13;;;19.84;71.41
76627;BME280;65519;53.230;10.390;2023-06-26T04:34:33;100926.63;;;19.86;71.30
76627;BME280;65519;53.230;10.390;2023-06-26T04:37:02;100923.34;;;19.93;71.30
76627;BME280;65519;53.230;10.390;2023-06-26T04:39:29;100919.28;;;19.99;70.88
76627;BME280;65519;53.230;10.390;2023-06-26T04:41:55;100922.53;;;20.01;71.04
76627;BME280;65519;53.230;10.390;2023-06-26T04:44:21;100917.97;;;20.05;70.52
76627;BME280;65519;53.230;10.390;2023-06-26T04:46:46;100915.03;;;19.93;71.12
76627;BME280;65519;53.230;10.390;2023-06-26T04:49:11;100921.75;;;20.00;70.95
76627;BME280;65519;53.230;10.390;2023-06-26T04:51:37;100916.34;;;20.04;70.94
76627;BME280;65519;53.230;10.390;2023-06-26T04:54:09;100908.03;;;20.04;71.02
76627;BME280;65519;53.230;10.390;2023-06-26T04:56:36;100903.31;;;20.04;71.04
76627;BME280;65519;53.230;10.390;2023-06-26T04:59:02;100901.34;;;20.22;70.42
76627;BME280;65519;53.230;10.390;2023-06-26T05:01:28;100896.44;;;20.28;70.25
76627;BME280;65519;53.230;10.390;2023-06-26T05:03:58;100901.47;;;20.34;69.88
76627;BME280;65519;53.230;10.390;2023-06-26T05:06:23;100889.78;;;20.37;69.35
76627;BME280;65519;53.230;10.390;2023-06-26T05:08:49;100884.72;;;20.39;69.58
76627;BME280;65519;53.230;10.390;2023-06-26T05:11:15;100871.84;;;20.44;69.26
76627;BME280;65519;53.230;10.390;2023-06-26T05:13:40;100884.38;;;20.50;69.13
76627;BME280;65519;53.230;10.390;2023-06-26T05:16:06;100883.22;;;20.51;68.82
76627;BME280;65519;53.230;10.390;2023-06-26T05:18:34;100880.91;;;20.61;68.87
76627;BME280;65519;53.230;10.390;2023-06-26T05:21:00;100880.25;;;20.64;68.38
76627;BME280;65519;53.230;10.390;2023-06-26T05:23:25;100871.91;;;20.73;68.36
76627;BME280;65519;53.230;10.390;2023-06-26T05:25:52;100875.16;;;20.75;68.27
76627;BME280;65519;53.230;10.390;2023-06-26T05:28:18;100866.13;;;20.87;68.20
76627;BME280;65519;53.230;10.390;2023-06-26T05:30:43;100880.31;;;20.85;67.86
76627;BME280;65519;53.230;10.390;2023-06-26T05:33:14;100857.78;;;20.95;67.57
76627;BME280;65519;53.230;10.390;2023-06-26T05:35:42;100862.13;;;21.05;67.62
76627;BME280;65519;53.230;10.390;2023-06-26T05:38:09;100863.44;;;20.99;66.96
76627;BME280;65519;53.230;10.390;2023-06-26T05:40:35;100857.38;;;21.05;67.17
76627;BME280;65519;53.230;10.390;2023-06-26T05:43:01;100852.44;;;21.20;66.75
76627;BME280;65519;53.230;10.390;2023-06-26T05:45:27;100847.22;;;21.09;66.63
76627;BME280;65519;53.230;10.390;2023-06-26T05:47:52;100842.94;;;21.21;66.71
76627;BME280;65519;53.230;10.390;2023-06-26T05:50:18;100837.56;;;21.24;65.95
76627;BME280;65519;53.230;10.390;2023-06-26T05:52:45;100839.25;;;21.37;66.18
76627;BME280;65519;53.230;10.390;2023-06-26T05:55:11;100841.94;;;21.46;66.08
76627;BME280;65519;53.230;10.390;2023-06-26T05:57:37;100845.81;;;21.54;65.68
76627;BME280;65519;53.230;10.390;2023-06-26T06:00:05;100837.06;;;21.64;65.82
76627;BME280;65519;53.230;10.390;2023-06-26T06:02:39;100836.72;;;21.65;65.75
76627;BME280;65519;53.230;10.390;2023-06-26T06:05:05;100836.06;;;21.68;65.61
76627;BME280;65519;53.230;10.390;2023-06-26T06:07:32;100838.50;;;21.70;65.37
76627;BME280;65519;53.230;10.390;2023-06-26T06:09:58;100838.88;;;21.80;65.57
76627;BME280;65519;53.230;10.390;2023-06-26T06:12:26;100835.88;;;21.85;65.67
76627;BME280;65519;53.230;10.390;2023-06-26T06:14:52;100837.06;;;21.97;65.55
76627;BME280;65519;53.230;10.390;2023-06-26T06:17:19;100834.13;;;22.02;64.79
76627;BME280;65519;53.230;10.390;2023-06-26T06:19:45;100825.94;;;22.05;64.61
76627;BME280;65519;53.230;10.390;2023-06-26T06:22:10;100831.88;;;22.16;64.33
76627;BME280;65519;53.230;10.390;2023-06-26T06:24:36;100822.63;;;22.24;64.17
76627;BME280;65519;53.230;10.390;2023-06-26T06:27:01;100825.28;;;22.33;64.29
76627;BME280;65519;53.230;10.390;2023-06-26T06:29:27;100822.31;;;22.38;63.80
76627;BME280;65519;53.230;10.390;2023-06-26T06:31:53;100822.66;;;22.48;63.59
76627;BME280;65519;53.230;10.390;2023-06-26T06:34:18;100825.66;;;22.55;63.25
76627;BME280;65519;53.230;10.390;2023-06-26T06:36:43;100820.00;;;22.64;63.04
76627;BME280;65519;53.230;10.390;2023-06-26T06:39:09;100812.69;;;22.72;63.12
76627;BME280;65519;53.230;10.390;2023-06-26T06:41:34;100812.72;;;22.84;62.86
76627;BME280;65519;53.230;10.390;2023-06-26T06:44:04;100821.31;;;22.91;63.04
76627;BME280;65519;53.230;10.390;2023-06-26T06:46:30;100808.88;;;23.01;62.11
76627;BME280;65519;53.230;10.390;2023-06-26T06:48:56;100800.41;;;23.09;62.39
76627;BME280;65519;53.230;10.390;2023-06-26T06:51:22;100799.22;;;23.22;61.57
76627;BME280;65519;53.230;10.390;2023-06-26T06:53:47;100792.72;;;23.30;60.67
76627;BME280;65519;53.230;10.390;2023-06-26T06:56:13;100784.56;;;23.38;60.25
76627;BME280;65519;53.230;10.390;2023-06-26T06:58:38;100788.72;;;23.44;60.37
76627;BME280;65519;53.230;10.390;2023-06-26T07:01:06;100785.47;;;23.54;59.92
76627;BME280;65519;53.230;10.390;2023-06-26T07:03:31;100770.94;;;23.60;59.98
76627;BME280;65519;53.230;10.390;2023-06-26T07:05:57;100777.03;;;23.78;58.12
76627;BME280;65519;53.230;10.390;2023-06-26T07:08:22;100760.84;;;23.84;57.51
76627;BME280;65519;53.230;10.390;2023-06-26T07:10:47;100774.25;;;23.94;57.12
76627;BME280;65519;53.230;10.390;2023-06-26T07:13:13;100768.84;;;23.85;56.77
76627;BME280;65519;53.230;10.390;2023-06-26T07:15:38;100762.50;;;24.00;58.16
76627;BME280;65519;53.230;10.390;2023-06-26T07:18:04;100771.50;;;24.10;58.34
76627;BME280;65519;53.230;10.390;2023-06-26T07:20:29;100762.34;;;24.25;56.80
76627;BME280;65519;53.230;10.390;2023-06-26T07:22:55;100765.69;;;24.30;57.05
76627;BME280;65519;53.230;10.390;2023-06-26T07:25:20;100754.44;;;24.27;56.25
76627;BME280;65519;53.230;10.390;2023-06-26T07:27:46;100769.63;;;24.45;56.04
76627;BME280;65519;53.230;10.390;2023-06-26T07:30:12;100760.44;;;24.45;56.06
76627;BME280;65519;53.230;10.390;2023-06-26T07:32:37;100757.03;;;24.51;55.30
76627;BME280;65519;53.230;10.390;2023-06-26T07:35:04;100760.69;;;24.55;55.19
76627;BME280;65519;53.230;10.390;2023-06-26T07:37:29;100755.13;;;24.55;54.62
76627;BME280;65519;53.230;10.390;2023-06-26T07:39:55;100759.28;;;24.61;54.74
76627;BME280;65519;53.230;10.390;2023-06-26T07:42:20;100747.56;;;24.71;54.70
76627;BME280;65519;53.230;10.390;2023-06-26T07:44:46;100751.41;;;24.83;55.00
76627;BME280;65519;53.230;10.390;2023-06-26T07:47:12;100748.06;;;24.93;54.74
76627;BME280;65519;53.230;10.390;2023-06-26T07:49:39;100749.03;;;25.00;53.89
76627;BME280;65519;53.230;10.390;2023-06-26T07:52:05;100749.94;;;25.04;54.26
76627;BME280;65519;53.230;10.390;2023-06-26T07:54:30;100747.00;;;25.17;53.16
76627;BME280;65519;53.230;10.390;2023-06-26T07:56:58;100749.06;;;25.20;53.17
76627;BME280;65519;53.230;10.390;2023-06-26T07:59:25;100757.50;;;25.23;53.38
76627;BME280;65519;53.230;10.390;2023-06-26T08:01:51;100762.25;;;25.23;53.07
76627;BME280;65519;53.230;10.390;2023-06-26T08:04:18;100760.72;;;25.25;53.16
76627;BME280;65519;53.230;10.390;2023-06-26T08:06:45;100741.47;;;25.20;53.55
76627;BME280;65519;53.230;10.390;2023-06-26T08:09:11;100748.41;;;25.26;53.86
76627;BME280;65519;53.230;10.390;2023-06-26T08:11:38;100754.66;;;25.39;54.19
76627;BME280;65519;53.230;10.390;2023-06-26T08:14:04;100747.59;;;25.45;54.31
76627;BME280;65519;53.230;10.390;2023-06-26T08:16:29;100740.97;;;25.53;52.19
76627;BME280;65519;53.230;10.390;2023-06-26T08:18:55;100749.38;;;25.72;52.66
76627;BME280;65519;53.230;10.390;2023-06-26T08:21:20;100733.78;;;25.71;51.84
76627;BME280;65519;53.230;10.390;2023-06-26T08:23:46;100736.59;;;25.94;52.06
76627;BME280;65519;53.230;10.390;2023-06-26T08:26:11;100725.44;;;25.94;51.63
76627;BME280;65519;53.230;10.390;2023-06-26T08:28:37;100731.69;;;26.10;50.73
76627;BME280;65519;53.230;10.390;2023-06-26T08:31:02;100709.94;;;26.00;50.88
76627;BME280;65519;53.230;10.390;2023-06-26T08:33:28;100714.78;;;26.26;51.53
76627;BME280;65519;53.230;10.390;2023-06-26T08:35:53;100709.06;;;26.42;50.60
76627;BME280;65519;53.230;10.390;2023-06-26T08:38:18;100712.00;;;26.49;49.77
76627;BME280;65519;53.230;10.390;2023-06-26T08:40:47;100712.91;;;26.57;47.76
76627;BME280;65519;53.230;10.390;2023-06-26T08:43:12;100712.63;;;26.65;47.14
76627;BME280;65519;53.230;10.390;2023-06-26T08:45:38;100707.47;;;26.67;46.56
76627;BME280;65519;53.230;10.390;2023-06-26T08:48:07;100712.31;;;26.70;46.31
76627;BME280;65519;53.230;10.390;2023-06-26T08:50:34;100715.09;;;26.70;46.96
76627;BME280;65519;53.230;10.390;2023-06-26T08:55:35;100712.66;;;26.42;47.86
76627;BME280;65519;53.230;10.390;2023-06-26T08:58:04;100714.28;;;26.43;48.37
76627;BME280;65519;53.230;10.390;2023-06-26T09:00:30;100708.03;;;26.53;47.88
76627;BME280;65519;53.230;10.390;2023-06-26T09:02:56;100721.75;;;26.62;47.55
76627;BME280;65519;53.230;10.390;2023-06-26T09:05:21;100717.63;;;26.82;47.89
76627;BME280;65519;53.230;10.390;2023-06-26T09:07:47;100706.38;;;27.02;47.91
76627;BME280;65519;53.230;10.390;2023-06-26T09:10:12;100719.13;;;26.99;48.94
76627;BME280;65519;53.230;10.390;2023-06-26T09:12:38;100715.97;;;27.04;46.94
76627;BME280;65519;53.230;10.390;2023-06-26T09:15:08;100713.03;;;26.94;49.04
76627;BME280;65519;53.230;10.390;2023-06-26T09:17:38;100710.94;;;27.17;47.70
76627;BME280;65519;53.230;10.390;2023-06-26T09:20:05;100722.50;;;27.15;47.37
76627;BME280;65519;53.230;10.390;2023-06-26T09:22:36;100727.22;;;27.08;47.98
76627;BME280;65519;53.230;10.390;2023-06-26T09:25:03;100732.38;;;27.06;49.08
76627;BME280;65519;53.230;10.390;2023-06-26T09:27:29;100718.06;;;27.11;47.69
76627;BME280;65519;53.230;10.390;2023-06-26T09:29:55;100713.41;;;27.22;47.75
76627;BME280;65519;53.230;10.390;2023-06-26T09:32:25;100717.66;;;27.42;47.08
76627;BME280;65519;53.230;10.390;2023-06-26T09:34:53;100726.25;;;27.56;47.22
76627;BME280;65519;53.230;10.390;2023-06-26T09:37:19;100719.56;;;27.68;46.92
76627;BME280;65519;53.230;10.390;2023-06-26T09:39:45;100729.53;;;27.66;46.26
76627;BME280;65519;53.230;10.390;2023-06-26T09:42:10;100728.38;;;27.70;46.20
76627;BME280;65519;53.230;10.390;2023-06-26T09:44:44;100724.75;;;27.70;45.85
76627;BME280;65519;53.230;10.390;2023-06-26T09:47:10;100733.16;;;27.66;46.33
76627;BME280;65519;53.230;10.390;2023-06-26T09:49:35;100729.50;;;27.62;47.30
76627;BME280;65519;53.230;10.390;2023-06-26T09:52:02;100728.16;;;27.86;46.68
76627;BME280;65519;53.230;10.390;2023-06-26T09:54:28;100733.53;;;27.65;46.91
76627;BME280;65519;53.230;10.390;2023-06-26T09:57:08;100737.19;;;27.39;48.24
76627;BME280;65519;53.230;10.390;2023-06-26T09:59:34;100737.03;;;27.24;49.06
76627;BME280;65519;53.230;10.390;2023-06-26T10:02:00;100737.00;;;27.21;49.42
76627;BME280;65519;53.230;10.390;2023-06-26T10:04:26;100743.91;;;27.01;49.80
76627;BME280;65519;53.230;10.390;2023-06-26T10:06:54;100750.09;;;27.13;50.09
76627;BME280;65519;53.230;10.390;2023-06-26T10:09:21;100735.31;;;27.16;49.42
76627;BME280;65519;53.230;10.390;2023-06-26T10:11:52;100742.31;;;27.00;49.99
76627;BME280;65519;53.230;10.390;2023-06-26T10:14:21;100752.44;;;26.85;50.19
76627;BME280;65519;53.230;10.390;2023-06-26T10:16:51;100756.56;;;26.65;50.49
76627;BME280;65519;53.230;10.390;2023-06-26T10:19:18;100749.84;;;26.69;50.46
76627;BME280;65519;53.230;10.390;2023-06-26T10:21:51;100760.84;;;26.85;50.30
76627;BME280;65519;53.230;10.390;2023-06-26T10:24:18;100770.41;;;26.84;49.76
76627;BME280;65519;53.230;10.390;2023-06-26T10:26:49;100770.22;;;26.70;49.13
76627;BME280;65519;53.230;10.390;2023-06-26T10:29:16;100760.06;;;26.58;49.58
76627;BME280;65519;53.230;10.390;2023-06-26T10:31:48;100780.09;;;26.64;50.59
76627;BME280;65519;53.230;10.390;2023-06-26T10:34:15;100777.09;;;26.49;51.05
76627;BME280;65519;53.230;10.390;2023-06-26T10:36:41;100788.91;;;26.20;52.59
76627;BME280;65519;53.230;10.390;2023-06-26T10:39:07;100778.22;;;25.80;53.53
76627;BME280;65519;53.230;10.390;2023-06-26T10:41:40;100786.63;;;25.61;54.16
76627;BME280;65519;53.230;10.390;2023-06-26T10:44:11;100786.16;;;25.39;54.41
76627;BME280;65519;53.230;10.390;2023-06-26T10:46:56;100806.31;;;25.14;55.95
76627;BME280;65519;53.230;10.390;2023-06-26T10:49:29;100816.22;;;23.73;64.99
76627;BME280;65519;53.230;10.390;2023-06-26T10:51:55;100858.59;;;22.90;68.03
76627;BME280;65519;53.230;10.390;2023-06-26T10:54:28;100866.88;;;21.88;74.31
76627;BME280;65519;53.230;10.390;2023-06-26T10:56:55;100885.00;;;21.23;77.68
76627;BME280;65519;53.230;10.390;2023-06-26T10:59:26;100900.53;;;20.86;80.81
76627;BME280;65519;53.230;10.390;2023-06-26T11:01:57;100898.38;;;20.45;85.11
76627;BME280;65519;53.230;10.390;2023-06-26T11:07:20;100925.00;;;19.77;90.60
76627;BME280;65519;53.230;10.390;2023-06-26T11:15:03;100944.97;;;20.25;89.56
76627;BME280;65519;53.230;10.390;2023-06-26T11:17:29;100944.19;;;19.99;88.14
76627;BME280;65519;53.230;10.390;2023-06-26T11:19:54;100943.69;;;19.80;89.01
76627;BME280;65519;53.230;10.390;2023-06-26T11:22:21;100944.34;;;19.85;90.52
76627;BME280;65519;53.230;10.390;2023-06-26T11:24:49;100952.47;;;20.16;90.18
76627;BME280;65519;53.230;10.390;2023-06-26T11:27:18;100967.28;;;20.03;89.11
76627;BME280;65519;53.230;10.390;2023-06-26T11:29:47;100962.75;;;20.07;87.50
76627;BME280;65519;53.230;10.390;2023-06-26T11:32:14;100970.72;;;20.17;87.22
76627;BME280;65519;53.230;10.390;2023-06-26T11:34:39;100972.34;;;20.35;88.34
76627;BME280;65519;53.230;10.390;2023-06-26T11:37:06;100975.63;;;20.37;87.42
76627;BME280;65519;53.230;10.390;2023-06-26T11:39:33;100980.31;;;20.54;87.55
76627;BME280;65519;53.230;10.390;2023-06-26T11:41:59;100975.34;;;20.77;87.55
76627;BME280;65519;53.230;10.390;2023-06-26T11:44:29;100970.91;;;20.93;87.99
76627;BME280;65519;53.230;10.390;2023-06-26T11:46:56;100972.13;;;21.13;85.80
76627;BME280;65519;53.230;10.390;2023-06-26T11:49:22;100978.69;;;21.08;85.73
76627;BME280;65519;53.230;10.390;2023-06-26T11:51:48;100985.38;;;21.07;86.43
76627;BME280;65519;53.230;10.390;2023-06-26T11:54:14;100991.81;;;20.82;86.32
76627;BME280;65519;53.230;10.390;2023-06-26T11:56:40;100991.38;;;21.09;85.53
76627;BME280;65519;53.230;10.390;2023-06-26T11:59:07;100993.63;;;21.25;86.97
76627;BME280;65519;53.230;10.390;2023-06-26T12:01:42;100999.66;;;21.27;86.77
76627;BME280;65519;53.230;10.390;2023-06-26T12:04:16;100996.25;;;21.30;85.91
76627;BME280;65519;53.230;10.390;2023-06-26T12:06:48;100991.63;;;21.34;85.16
76627;BME280;65519;53.230;10.390;2023-06-26T12:09:17;100992.66;;;21.29;85.44
76627;BME280;65519;53.230;10.390;2023-06-26T12:11:44;100999.16;;;21.63;85.51
76627;BME280;65519;53.230;10.390;2023-06-26T12:14:14;100995.50;;;21.71;83.63
76627;BME280;65519;53.230;10.390;2023-06-26T12:16:40;100992.25;;;21.90;82.85
76627;BME280;65519;53.230;10.390;2023-06-26T12:19:07;100994.78;;;21.82;78.58
76627;BME280;65519;53.230;10.390;2023-06-26T12:23:59;100990.44;;;21.94;77.52
76627;BME280;65519;53.230;10.390;2023-06-26T12:26:26;100982.56;;;21.96;79.62
76627;BME280;65519;53.230;10.390;2023-06-26T12:28:52;100986.03;;;22.34;78.64
76627;BME280;65519;53.230;10.390;2023-06-26T12:31:20;100992.41;;;22.68;79.92
76627;BME280;65519;53.230;10.390;2023-06-26T12:33:46;100984.72;;;22.85;75.52
76627;BME280;65519;53.230;10.390;2023-06-26T12:36:12;100991.38;;;22.72;71.35
76627;BME280;65519;53.230;10.390;2023-06-26T12:38:38;100986.16;;;23.04;72.97
76627;BME280;65519;53.230;10.390;2023-06-26T12:41:04;100984.16;;;23.16;73.87
76627;BME280;65519;53.230;10.390;2023-06-26T12:43:29;100993.00;;;23.30;73.12
76627;BME280;65519;53.230;10.390;2023-06-26T12:45:55;100986.88;;;23.25;70.21
76627;BME280;65519;53.230;10.390;2023-06-26T12:48:22;101006.31;;;23.13;69.16
76627;BME280;65519;53.230;10.390;2023-06-26T12:50:47;101010.13;;;23.08;66.86
76627;BME280;65519;53.230;10.390;2023-06-26T12:53:15;101012.69;;;23.13;67.50